Aviation Digital Data Service (ADDS)

Output produced by METARs form (1300 UTC 19 January 2019)
found at http://www.aviationweather.gov/metar/data/
 
METAR text: GMMZ 191200Z VRB02KT 9999 FEW030 11/M06 Q1023 NOSIG
Conditions at: GMMZ (OUARZAZATE , MA) observed 1200 UTC 19 January 2019
Temperature: 11.0°C (52°F)
Dewpoint: -6.0°C (21°F) [RH = 30%]
Pressure (altimeter): 30.21 inches Hg (1023.0 mb)
Winds: variable direction winds at 2 MPH (2 knots; 1.0 m/s)
Visibility: 6 or more miles (10+ km)
Ceiling: at least 12,000 feet AGL
Clouds: few clouds at 3000 feet AGL
Weather: no significant weather observed at this time

METAR text: GMMZ 191100Z VRB02KT 9999 FEW030 10/M05 Q1023 NOSIG
Conditions at: GMMZ (OUARZAZATE , MA) observed 1100 UTC 19 January 2019
Temperature: 10.0°C (50°F)
Dewpoint: -5.0°C (23°F) [RH = 34%]
Pressure (altimeter): 30.21 inches Hg (1023.0 mb)
Winds: variable direction winds at 2 MPH (2 knots; 1.0 m/s)
Visibility: 6 or more miles (10+ km)
Ceiling: at least 12,000 feet AGL
Clouds: few clouds at 3000 feet AGL
Weather: no significant weather observed at this time

METAR text: GMMZ 191000Z VRB02KT 9999 FEW030 07/M07 Q1023 NOSIG
Conditions at: GMMZ (OUARZAZATE , MA) observed 1000 UTC 19 January 2019
Temperature: 7.0°C (45°F)
Dewpoint: -7.0°C (19°F) [RH = 36%]
Pressure (altimeter): 30.21 inches Hg (1023.0 mb)
Winds: variable direction winds at 2 MPH (2 knots; 1.0 m/s)
Visibility: 6 or more miles (10+ km)
Ceiling: at least 12,000 feet AGL
Clouds: few clouds at 3000 feet AGL
Weather: no significant weather observed at this time

METAR text: GMMZ 190900Z VRB02KT 9999 FEW030 05/M08 Q1023 NOSIG
Conditions at: GMMZ (OUARZAZATE , MA) observed 0900 UTC 19 January 2019
Temperature: 5.0°C (41°F)
Dewpoint: -8.0°C (18°F) [RH = 38%]
Pressure (altimeter): 30.21 inches Hg (1023.0 mb)
Winds: variable direction winds at 2 MPH (2 knots; 1.0 m/s)
Visibility: 6 or more miles (10+ km)
Ceiling: at least 12,000 feet AGL
Clouds: few clouds at 3000 feet AGL
Weather: no significant weather observed at this time

METAR text: GMMZ 190800Z VRB01KT 9999 FEW030 01/M08 Q1022 NOSIG
Conditions at: GMMZ (OUARZAZATE , MA) observed 0800 UTC 19 January 2019
Temperature: 1.0°C (34°F)
Dewpoint: -8.0°C (18°F) [RH = 51%]
Pressure (altimeter): 30.18 inches Hg (1022.0 mb)
Winds: variable direction winds at 1 MPH (1 knots; 0.5 m/s)
Visibility: 6 or more miles (10+ km)
Ceiling: at least 12,000 feet AGL
Clouds: few clouds at 3000 feet AGL
Weather: no significant weather observed at this time

METAR text: GMMZ 190700Z VRB02KT 9999 FEW030 01/M07 Q1021 NOSIG
Conditions at: GMMZ (OUARZAZATE , MA) observed 0700 UTC 19 January 2019
Temperature: 1.0°C (34°F)
Dewpoint: -7.0°C (19°F) [RH = 55%]
Pressure (altimeter): 30.15 inches Hg (1021.0 mb)
Winds: variable direction winds at 2 MPH (2 knots; 1.0 m/s)
Visibility: 6 or more miles (10+ km)
Ceiling: at least 12,000 feet AGL
Clouds: few clouds at 3000 feet AGL
Weather: no significant weather observed at this time

METAR text: GMMZ 190600Z 27003KT CAVOK 02/M06 Q1021 NOSIG
Conditions at: GMMZ (OUARZAZATE , MA) observed 0600 UTC 19 January 2019
Temperature: 2.0°C (36°F)
Dewpoint: -6.0°C (21°F) [RH = 55%]
Pressure (altimeter): 30.15 inches Hg (1021.0 mb)
Winds: from the W (270 degrees) at 3 MPH (3 knots; 1.5 m/s)
Visibility: 6 or more miles (10+ km)
Ceiling: ceiling and visibility are OK
Clouds: unknown
Weather: no significant weather observed at this time

METAR text: GMMZ 190500Z 29002KT CAVOK 02/M06 Q1020 NOSIG
Conditions at: GMMZ (OUARZAZATE , MA) observed 0500 UTC 19 January 2019
Temperature: 2.0°C (36°F)
Dewpoint: -6.0°C (21°F) [RH = 55%]
Pressure (altimeter): 30.12 inches Hg (1020.0 mb)
Winds: from the WNW (290 degrees) at 2 MPH (2 knots; 1.0 m/s)
Visibility: 6 or more miles (10+ km)
Ceiling: ceiling and visibility are OK
Clouds: unknown
Weather: no significant weather observed at this time

METAR text: GMMZ 190400Z VRB02KT CAVOK 04/M06 Q1020 NOSIG
Conditions at: GMMZ (OUARZAZATE , MA) observed 0400 UTC 19 January 2019
Temperature: 4.0°C (39°F)
Dewpoint: -6.0°C (21°F) [RH = 48%]
Pressure (altimeter): 30.12 inches Hg (1020.0 mb)
Winds: variable direction winds at 2 MPH (2 knots; 1.0 m/s)
Visibility: 6 or more miles (10+ km)
Ceiling: ceiling and visibility are OK
Clouds: unknown
Weather: no significant weather observed at this time

METAR text: GMMZ 190300Z 31004KT CAVOK 03/M06 Q1021 NOSIG
Conditions at: GMMZ (OUARZAZATE , MA) observed 0300 UTC 19 January 2019
Temperature: 3.0°C (37°F)
Dewpoint: -6.0°C (21°F) [RH = 52%]
Pressure (altimeter): 30.15 inches Hg (1021.0 mb)
Winds: from the NW (310 degrees) at 5 MPH (4 knots; 2.1 m/s)
Visibility: 6 or more miles (10+ km)
Ceiling: ceiling and visibility are OK
Clouds: unknown
Weather: no significant weather observed at this time

METAR text: GMMZ 190200Z 27007KT CAVOK 06/M05 Q1021 NOSIG
Conditions at: GMMZ (OUARZAZATE , MA) observed 0200 UTC 19 January 2019
Temperature: 6.0°C (43°F)
Dewpoint: -5.0°C (23°F) [RH = 45%]
Pressure (altimeter): 30.15 inches Hg (1021.0 mb)
Winds: from the W (270 degrees) at 8 MPH (7 knots; 3.6 m/s)
Visibility: 6 or more miles (10+ km)
Ceiling: ceiling and visibility are OK
Clouds: unknown
Weather: no significant weather observed at this time

METAR text: GMMZ 190100Z 22003KT 9999 FEW030 06/M06 Q1020 NOSIG
Conditions at: GMMZ (OUARZAZATE , MA) observed 0100 UTC 19 January 2019
Temperature: 6.0°C (43°F)
Dewpoint: -6.0°C (21°F) [RH = 42%]
Pressure (altimeter): 30.12 inches Hg (1020.0 mb)
Winds: from the SW (220 degrees) at 3 MPH (3 knots; 1.5 m/s)
Visibility: 6 or more miles (10+ km)
Ceiling: at least 12,000 feet AGL
Clouds: few clouds at 3000 feet AGL
Weather: no significant weather observed at this time

METAR text: GMMZ 190000Z 25007KT 9999 FEW030 08/M06 Q1021 NOSIG
Conditions at: GMMZ (OUARZAZATE , MA) observed 0000 UTC 19 January 2019
Temperature: 8.0°C (46°F)
Dewpoint: -6.0°C (21°F) [RH = 36%]
Pressure (altimeter): 30.15 inches Hg (1021.0 mb)
Winds: from the WSW (250 degrees) at 8 MPH (7 knots; 3.6 m/s)
Visibility: 6 or more miles (10+ km)
Ceiling: at least 12,000 feet AGL
Clouds: few clouds at 3000 feet AGL
Weather: no significant weather observed at this time

METAR text: GMMZ 182300Z 23005KT 9999 FEW030 08/M06 Q1021 NOSIG
Conditions at: GMMZ (OUARZAZATE , MA) observed 2300 UTC 18 January 2019
Temperature: 8.0°C (46°F)
Dewpoint: -6.0°C (21°F) [RH = 36%]
Pressure (altimeter): 30.15 inches Hg (1021.0 mb)
Winds: from the SW (230 degrees) at 6 MPH (5 knots; 2.6 m/s)
Visibility: 6 or more miles (10+ km)
Ceiling: at least 12,000 feet AGL
Clouds: few clouds at 3000 feet AGL
Weather: no significant weather observed at this time

METAR text: GMMZ 182200Z 25007KT 9999 FEW030 08/M06 Q1020 NOSIG
Conditions at: GMMZ (OUARZAZATE , MA) observed 2200 UTC 18 January 2019
Temperature: 8.0°C (46°F)
Dewpoint: -6.0°C (21°F) [RH = 36%]
Pressure (altimeter): 30.12 inches Hg (1020.0 mb)
Winds: from the WSW (250 degrees) at 8 MPH (7 knots; 3.6 m/s)
Visibility: 6 or more miles (10+ km)
Ceiling: at least 12,000 feet AGL
Clouds: few clouds at 3000 feet AGL
Weather: no significant weather observed at this time

METAR text: GMMZ 182100Z 29006KT 9999 FEW030 08/M06 Q1019 NOSIG
Conditions at: GMMZ (OUARZAZATE , MA) observed 2100 UTC 18 January 2019
Temperature: 8.0°C (46°F)
Dewpoint: -6.0°C (21°F) [RH = 36%]
Pressure (altimeter): 30.09 inches Hg (1019.0 mb)
Winds: from the WNW (290 degrees) at 7 MPH (6 knots; 3.1 m/s)
Visibility: 6 or more miles (10+ km)
Ceiling: at least 12,000 feet AGL
Clouds: few clouds at 3000 feet AGL
Weather: no significant weather observed at this time

METAR text: GMMZ 182000Z 27006KT 9999 FEW033 10/M07 Q1019 NOSIG
Conditions at: GMMZ (OUARZAZATE , MA) observed 2000 UTC 18 January 2019
Temperature: 10.0°C (50°F)
Dewpoint: -7.0°C (19°F) [RH = 29%]
Pressure (altimeter): 30.09 inches Hg (1019.0 mb)
Winds: from the W (270 degrees) at 7 MPH (6 knots; 3.1 m/s)
Visibility: 6 or more miles (10+ km)
Ceiling: at least 12,000 feet AGL
Clouds: few clouds at 3300 feet AGL
Weather: no significant weather observed at this time

METAR text: GMMZ 181900Z 28015KT 9999 FEW033 11/M06 Q1018 NOSIG
Conditions at: GMMZ (OUARZAZATE , MA) observed 1900 UTC 18 January 2019
Temperature: 11.0°C (52°F)
Dewpoint: -6.0°C (21°F) [RH = 30%]
Pressure (altimeter): 30.06 inches Hg (1018.0 mb)
Winds: from the W (280 degrees) at 17 MPH (15 knots; 7.7 m/s)
Visibility: 6 or more miles (10+ km)
Ceiling: at least 12,000 feet AGL
Clouds: few clouds at 3300 feet AGL
Weather: no significant weather observed at this time

METAR text: GMMZ 181800Z VRB02KT 9999 FEW033 13/M12 Q1017 NOSIG
Conditions at: GMMZ (OUARZAZATE , MA) observed 1800 UTC 18 January 2019
Temperature: 13.0°C (55°F)
Dewpoint: -12.0°C (10°F) [RH = 16%]
Pressure (altimeter): 30.03 inches Hg (1017.0 mb)
Winds: variable direction winds at 2 MPH (2 knots; 1.0 m/s)
Visibility: 6 or more miles (10+ km)
Ceiling: at least 12,000 feet AGL
Clouds: few clouds at 3300 feet AGL
Weather: no significant weather observed at this time

METAR text: GMMZ 181700Z VRB02KT 9999 FEW033 14/M12 Q1017 NOSIG
Conditions at: GMMZ (OUARZAZATE , MA) observed 1700 UTC 18 January 2019
Temperature: 14.0°C (57°F)
Dewpoint: -12.0°C (10°F) [RH = 15%]
Pressure (altimeter): 30.03 inches Hg (1017.0 mb)
Winds: variable direction winds at 2 MPH (2 knots; 1.0 m/s)
Visibility: 6 or more miles (10+ km)
Ceiling: at least 12,000 feet AGL
Clouds: few clouds at 3300 feet AGL
Weather: no significant weather observed at this time

METAR text: GMMZ 181600Z VRB02KT 9999 FEW033 14/M11 Q1017 NOSIG
Conditions at: GMMZ (OUARZAZATE , MA) observed 1600 UTC 18 January 2019
Temperature: 14.0°C (57°F)
Dewpoint: -11.0°C (12°F) [RH = 17%]
Pressure (altimeter): 30.03 inches Hg (1017.0 mb)
Winds: variable direction winds at 2 MPH (2 knots; 1.0 m/s)
Visibility: 6 or more miles (10+ km)
Ceiling: at least 12,000 feet AGL
Clouds: few clouds at 3300 feet AGL
Weather: no significant weather observed at this time

METAR text: GMMZ 181500Z VRB02KT 9999 FEW033 14/M10 Q1017 NOSIG
Conditions at: GMMZ (OUARZAZATE , MA) observed 1500 UTC 18 January 2019
Temperature: 14.0°C (57°F)
Dewpoint: -10.0°C (14°F) [RH = 18%]
Pressure (altimeter): 30.03 inches Hg (1017.0 mb)
Winds: variable direction winds at 2 MPH (2 knots; 1.0 m/s)
Visibility: 6 or more miles (10+ km)
Ceiling: at least 12,000 feet AGL
Clouds: few clouds at 3300 feet AGL
Weather: no significant weather observed at this time

METAR text: GMMZ 181400Z VRB02KT 9999 FEW033 14/M09 Q1018 NOSIG
Conditions at: GMMZ (OUARZAZATE , MA) observed 1400 UTC 18 January 2019
Temperature: 14.0°C (57°F)
Dewpoint: -9.0°C (16°F) [RH = 19%]
Pressure (altimeter): 30.06 inches Hg (1018.0 mb)
Winds: variable direction winds at 2 MPH (2 knots; 1.0 m/s)
Visibility: 6 or more miles (10+ km)
Ceiling: at least 12,000 feet AGL
Clouds: few clouds at 3300 feet AGL
Weather: no significant weather observed at this time

METAR text: GMMZ 181300Z VRB02KT 9999 FEW033 12/M09 Q1019 NOSIG
Conditions at: GMMZ (OUARZAZATE , MA) observed 1300 UTC 18 January 2019
Temperature: 12.0°C (54°F)
Dewpoint: -9.0°C (16°F) [RH = 22%]
Pressure (altimeter): 30.09 inches Hg (1019.0 mb)
Winds: variable direction winds at 2 MPH (2 knots; 1.0 m/s)
Visibility: 6 or more miles (10+ km)
Ceiling: at least 12,000 feet AGL
Clouds: few clouds at 3300 feet AGL
Weather: no significant weather observed at this time

METAR text: GMMZ 181200Z VRB02KT CAVOK 11/M09 Q1020 NOSIG
Conditions at: GMMZ (OUARZAZATE , MA) observed 1200 UTC 18 January 2019
Temperature: 11.0°C (52°F)
Dewpoint: -9.0°C (16°F) [RH = 24%]
Pressure (altimeter): 30.12 inches Hg (1020.0 mb)
Winds: variable direction winds at 2 MPH (2 knots; 1.0 m/s)
Visibility: 6 or more miles (10+ km)
Ceiling: ceiling and visibility are OK
Clouds: unknown
Weather: no significant weather observed at this time

METAR text: GMMZ 181100Z VRB02KT CAVOK 09/M08 Q1020 NOSIG
Conditions at: GMMZ (OUARZAZATE , MA) observed 1100 UTC 18 January 2019
Temperature: 9.0°C (48°F)
Dewpoint: -8.0°C (18°F) [RH = 29%]
Pressure (altimeter): 30.12 inches Hg (1020.0 mb)
Winds: variable direction winds at 2 MPH (2 knots; 1.0 m/s)
Visibility: 6 or more miles (10+ km)
Ceiling: ceiling and visibility are OK
Clouds: unknown
Weather: no significant weather observed at this time

METAR text: GMMZ 181000Z VRB02KT CAVOK 06/M08 Q1020 NOSIG
Conditions at: GMMZ (OUARZAZATE , MA) observed 1000 UTC 18 January 2019
Temperature: 6.0°C (43°F)
Dewpoint: -8.0°C (18°F) [RH = 36%]
Pressure (altimeter): 30.12 inches Hg (1020.0 mb)
Winds: variable direction winds at 2 MPH (2 knots; 1.0 m/s)
Visibility: 6 or more miles (10+ km)
Ceiling: ceiling and visibility are OK
Clouds: unknown
Weather: no significant weather observed at this time

METAR text: GMMZ 180900Z VRB02KT CAVOK 02/M07 Q1019 NOSIG
Conditions at: GMMZ (OUARZAZATE , MA) observed 0900 UTC 18 January 2019
Temperature: 2.0°C (36°F)
Dewpoint: -7.0°C (19°F) [RH = 51%]
Pressure (altimeter): 30.09 inches Hg (1019.0 mb)
Winds: variable direction winds at 2 MPH (2 knots; 1.0 m/s)
Visibility: 6 or more miles (10+ km)
Ceiling: ceiling and visibility are OK
Clouds: unknown
Weather: no significant weather observed at this time

METAR text: GMMZ 180800Z 28003KT CAVOK 01/M08 Q1019 NOSIG
Conditions at: GMMZ (OUARZAZATE , MA) observed 0800 UTC 18 January 2019
Temperature: 1.0°C (34°F)
Dewpoint: -8.0°C (18°F) [RH = 51%]
Pressure (altimeter): 30.09 inches Hg (1019.0 mb)
Winds: from the W (280 degrees) at 3 MPH (3 knots; 1.5 m/s)
Visibility: 6 or more miles (10+ km)
Ceiling: ceiling and visibility are OK
Clouds: unknown
Weather: no significant weather observed at this time

METAR text: GMMZ 180700Z 28003KT CAVOK 01/M08 Q1018 NOSIG
Conditions at: GMMZ (OUARZAZATE , MA) observed 0700 UTC 18 January 2019
Temperature: 1.0°C (34°F)
Dewpoint: -8.0°C (18°F) [RH = 51%]
Pressure (altimeter): 30.06 inches Hg (1018.0 mb)
Winds: from the W (280 degrees) at 3 MPH (3 knots; 1.5 m/s)
Visibility: 6 or more miles (10+ km)
Ceiling: ceiling and visibility are OK
Clouds: unknown
Weather: no significant weather observed at this time

METAR text: GMMZ 180600Z VRB02KT CAVOK 01/M09 Q1017 NOSIG
Conditions at: GMMZ (OUARZAZATE , MA) observed 0600 UTC 18 January 2019
Temperature: 1.0°C (34°F)
Dewpoint: -9.0°C (16°F) [RH = 47%]
Pressure (altimeter): 30.03 inches Hg (1017.0 mb)
Winds: variable direction winds at 2 MPH (2 knots; 1.0 m/s)
Visibility: 6 or more miles (10+ km)
Ceiling: ceiling and visibility are OK
Clouds: unknown
Weather: no significant weather observed at this time

METAR text: GMMZ 180500Z 29005KT CAVOK 01/M09 Q1017 NOSIG
Conditions at: GMMZ (OUARZAZATE , MA) observed 0500 UTC 18 January 2019
Temperature: 1.0°C (34°F)
Dewpoint: -9.0°C (16°F) [RH = 47%]
Pressure (altimeter): 30.03 inches Hg (1017.0 mb)
Winds: from the WNW (290 degrees) at 6 MPH (5 knots; 2.6 m/s)
Visibility: 6 or more miles (10+ km)
Ceiling: ceiling and visibility are OK
Clouds: unknown
Weather: no significant weather observed at this time

METAR text: GMMZ 180400Z 26003KT CAVOK 02/M09 Q1017 NOSIG
Conditions at: GMMZ (OUARZAZATE , MA) observed 0400 UTC 18 January 2019
Temperature: 2.0°C (36°F)
Dewpoint: -9.0°C (16°F) [RH = 44%]
Pressure (altimeter): 30.03 inches Hg (1017.0 mb)
Winds: from the W (260 degrees) at 3 MPH (3 knots; 1.5 m/s)
Visibility: 6 or more miles (10+ km)
Ceiling: ceiling and visibility are OK
Clouds: unknown
Weather: no significant weather observed at this time

METAR text: GMMZ 180300Z VRB02KT CAVOK 04/07 Q1017 NOSIG
Conditions at: GMMZ (OUARZAZATE , MA) observed 0300 UTC 18 January 2019
Temperature: 4.0°C (39°F)
Dewpoint: 7.0°C (45°F) [RH = 123%]
Pressure (altimeter): 30.03 inches Hg (1017.0 mb)
Winds: variable direction winds at 2 MPH (2 knots; 1.0 m/s)
Visibility: 6 or more miles (10+ km)
Ceiling: ceiling and visibility are OK
Clouds: unknown
Weather: no significant weather observed at this time

METAR text: GMMZ 180200Z VRB02KT CAVOK 02/M08 Q1017 NOSIG
Conditions at: GMMZ (OUARZAZATE , MA) observed 0200 UTC 18 January 2019
Temperature: 2.0°C (36°F)
Dewpoint: -8.0°C (18°F) [RH = 47%]
Pressure (altimeter): 30.03 inches Hg (1017.0 mb)
Winds: variable direction winds at 2 MPH (2 knots; 1.0 m/s)
Visibility: 6 or more miles (10+ km)
Ceiling: ceiling and visibility are OK
Clouds: unknown
Weather: no significant weather observed at this time

Forecast for: GMMZ (OUARZAZATE , MA)
Text: TAF GMMZ 191100Z 1912/2018 VRB02KT 9999 FEW030
Forecast period: 1200 UTC 19 January 2019 to 1800 UTC 20 January 2019
Forecast type: FROM: standard forecast or significant change
Winds: variable direction winds at 2 MPH (2 knots; 1.0 m/s)
Visibility: 6 or more miles 10+ km)
Ceiling: at least 12,000 feet AGL
Clouds: few clouds at 3000 feet AGL
Weather: no significant weather forecast for this period
Text: TEMPO 1914/1920 30014KT
Forecast period: 1400 to 2000 UTC 19 January 2019
Forecast type: TEMPORARY: The following changes expected for less than half the time period
Winds: from the WNW (300 degrees) at 16 MPH (14 knots; 7.2 m/s)
Visibility: missing
Ceiling: unknown
Clouds: missing
Weather: no significant weather forecast for this period